Time;durP1;ratioP1;P1;durP2;ratioP2;P2;SDS_P1;SDS_P2;PMS_P1;PMS_P2;Temp;Humidity;BMP_temperature;BMP_pressure;BME280_temperature;BME280_humidity;BME280_pressure;Samples;Min_cycle;Max_cycle;Signal;HPM_P1;HPM_P2
2022/05/17 00:01:35;;;;;;;2.55;1.55;;;;;;;8.34;74.67;98179.00;5063509;27;20050;-69
2022/05/17 00:04:01;;;;;;;2.75;1.73;;;;;;;8.28;74.67;98184.78;5097823;27;20043;-69
2022/05/17 00:06:26;;;;;;;2.78;1.98;;;;;;;8.25;74.34;98171.75;5078895;27;20042;-68
2022/05/17 00:08:51;;;;;;;2.88;2.45;;;;;;;8.26;74.58;98178.75;5061875;27;20076;-70
2022/05/17 00:11:16;;;;;;;5.93;1.65;;;;;;;8.27;75.48;98174.28;5078693;27;20112;-70
2022/05/17 00:13:41;;;;;;;4.90;2.15;;;;;;;8.26;74.66;98176.09;5079175;27;20039;-69
2022/05/17 00:16:07;;;;;;;4.07;1.83;;;;;;;8.27;75.23;98172.47;5097896;27;20054;-70
2022/05/17 00:18:33;;;;;;;3.22;1.55;;;;;;;8.23;75.12;98173.72;5079260;27;20045;-70
2022/05/17 00:20:58;;;;;;;2.38;2.17;;;;;;;8.22;75.71;98174.69;5097459;27;20054;-70
2022/05/17 00:23:22;;;;;;;1.58;1.48;;;;;;;8.22;75.80;98172.03;5078842;27;20035;-68
2022/05/17 00:25:49;;;;;;;2.40;1.80;;;;;;;8.23;75.67;98165.75;5097566;27;20050;-69
2022/05/17 00:28:15;;;;;;;1.63;1.52;;;;;;;8.22;76.24;98163.22;5062031;27;20123;-71
2022/05/17 00:30:40;;;;;;;2.03;1.83;;;;;;;8.21;75.99;98153.59;5079296;27;20492;-70
2022/05/17 00:33:05;;;;;;;2.78;1.67;;;;;;;8.16;76.85;98153.97;5097254;27;20034;-71
2022/05/17 00:35:31;;;;;;;1.40;1.30;;;;;;;8.17;76.62;98150.34;5054814;28;20044;-74
2022/05/17 00:37:55;;;;;;;2.35;1.65;;;;;;;8.15;77.13;98146.97;5059968;27;20093;-72
2022/05/17 00:40:20;;;;;;;2.53;1.88;;;;;;;8.13;76.78;98143.59;5096721;27;20051;-72
2022/05/17 00:42:45;;;;;;;3.08;2.17;;;;;;;8.10;76.78;98138.56;5093185;27;20035;-66
2022/05/17 00:45:10;;;;;;;1.55;1.42;;;;;;;8.04;77.68;98133.78;5092891;27;20062;-72
2022/05/17 00:47:42;;;;;;;1.75;1.30;;;;;;;8.03;77.72;98138.22;5058678;28;20039;-74
2022/05/17 00:50:26;;;;;;;2.95;1.55;;;;;;;8.10;77.55;98135.91;5077027;28;20051;-72
2022/05/17 00:53:05;;;;;;;1.92;1.33;;;;;;;8.10;77.51;98129.78;5059045;28;20047;-71
2022/05/17 00:55:41;;;;;;;3.20;1.52;;;;;;;8.11;78.14;98127.00;5057595;28;20071;-73
2022/05/17 00:58:13;;;;;;;1.60;1.50;;;;;;;8.08;77.53;98119.28;5058440;28;20047;-77
2022/05/17 01:00:46;;;;;;;2.00;1.58;;;;;;;8.06;77.50;98129.19;5059085;28;20043;-71
2022/05/17 01:03:15;;;;;;;2.30;1.60;;;;;;;8.07;77.30;98124.72;5059764;28;20117;-71
2022/05/17 01:05:44;;;;;;;1.70;1.50;;;;;;;8.03;77.30;98132.09;5059612;28;20055;-76
2022/05/17 01:08:12;;;;;;;2.50;1.60;;;;;;;7.98;77.18;98127.19;5072124;28;20035;-75
2022/05/17 01:10:37;;;;;;;5.35;1.52;;;;;;;7.97;77.37;98128.16;5063531;28;20043;-76
2022/05/17 01:15:46;;;;;;;1.90;1.77;;;;;;;7.97;77.82;98127.31;5064381;28;20043;-73
2022/05/17 01:18:11;;;;;;;3.40;2.30;;;;;;;7.96;78.14;98125.63;5063259;28;20039;-74
2022/05/17 01:20:36;;;;;;;2.28;2.05;;;;;;;7.98;77.63;98129.00;5081340;28;20043;-75
2022/05/17 01:23:01;;;;;;;2.20;1.77;;;;;;;7.96;78.41;98120.31;5076833;28;20031;-75
2022/05/17 01:25:28;;;;;;;3.13;1.95;;;;;;;7.95;78.01;98123.94;5076922;28;20055;-74
2022/05/17 01:28:00;;;;;;;1.73;1.63;;;;;;;7.94;78.78;98124.91;5076635;28;20440;-74
2022/05/17 01:30:28;;;;;;;3.45;2.22;;;;;;;7.97;79.07;98124.66;5058044;28;20055;-74
2022/05/17 01:32:53;;;;;;;2.13;1.92;;;;;;;7.97;79.14;98124.66;5057724;28;20065;-76
2022/05/17 01:35:18;;;;;;;2.70;1.95;;;;;;;7.99;78.83;98126.22;5076159;28;20039;-77
2022/05/17 01:37:43;;;;;;;2.15;1.77;;;;;;;8.05;78.73;98121.34;5041457;28;20405;-71
2022/05/17 01:40:10;;;;;;;2.00;1.85;;;;;;;8.03;78.93;98124.97;5071558;27;20193;-71
2022/05/17 01:42:36;;;;;;;3.05;1.83;;;;;;;8.03;78.54;98119.66;5061074;27;20131;-71
2022/05/17 01:45:01;;;;;;;2.40;2.13;;;;;;;8.03;79.34;98122.31;5061527;27;20075;-70
2022/05/17 01:47:29;;;;;;;1.65;1.52;;;;;;;8.02;79.36;98125.09;5080783;27;20493;-72
2022/05/17 01:49:53;;;;;;;1.80;1.70;;;;;;;8.04;78.73;98117.84;5101000;27;20043;-71
2022/05/17 01:52:18;;;;;;;4.13;2.22;;;;;;;7.99;79.45;98115.59;5080602;27;20037;-74
2022/05/17 01:54:43;;;;;;;1.70;1.60;;;;;;;7.99;79.59;98115.59;5096619;27;20043;-73
2022/05/17 01:57:07;;;;;;;2.17;1.92;;;;;;;8.02;78.56;98123.28;5095518;27;20096;-72
2022/05/17 01:59:33;;;;;;;2.55;2.25;;;;;;;7.98;79.35;98113.91;5096155;27;20083;-71
2022/05/17 02:01:58;;;;;;;5.72;1.65;;;;;;;8.00;79.65;98116.44;5076971;28;20042;-75
2022/05/17 02:04:24;;;;;;;2.85;2.17;;;;;;;8.00;79.30;98111.13;5077297;28;20501;-76
2022/05/17 02:06:48;;;;;;;3.55;2.33;;;;;;;8.00;79.82;98119.09;5076830;28;20563;-76
2022/05/17 02:09:13;;;;;;;2.38;2.03;;;;;;;8.00;79.45;98104.03;5095441;27;20361;-74
2022/05/17 02:11:38;;;;;;;2.70;2.10;;;;;;;7.99;79.97;98114.75;5095656;27;20126;-77
2022/05/17 02:14:04;;;;;;;2.30;2.03;;;;;;;8.00;79.98;98114.63;5077073;28;20133;-76
2022/05/17 02:16:29;;;;;;;3.05;2.22;;;;;;;8.03;79.43;98113.50;5059713;28;20523;-72
2022/05/17 02:18:54;;;;;;;2.67;2.40;;;;;;;8.05;79.46;98108.91;5095650;28;20448;-71
2022/05/17 02:21:18;;;;;;;2.22;2.05;;;;;;;8.00;80.28;98108.47;5077106;28;20047;-68
2022/05/17 02:23:43;;;;;;;2.50;2.17;;;;;;;8.02;79.95;98110.00;5095403;28;20035;-73
2022/05/17 02:26:09;;;;;;;2.40;1.85;;;;;;;8.05;80.15;98116.88;5076791;28;20509;-76
2022/05/17 02:28:35;;;;;;;4.13;2.38;;;;;;;8.06;80.05;98115.91;5076990;28;20515;-74
2022/05/17 02:31:00;;;;;;;2.47;2.05;;;;;;;8.06;80.53;98110.59;5059866;28;20050;-71
2022/05/17 02:33:25;;;;;;;3.92;2.15;;;;;;;8.06;80.27;98115.91;5095042;28;20035;-69
2022/05/17 02:35:50;;;;;;;3.22;2.25;;;;;;;8.08;79.89;98113.97;5076761;28;20184;-69
2022/05/17 02:38:14;;;;;;;3.53;2.15;;;;;;;8.10;80.11;98112.03;5076355;28;20046;-69
2022/05/17 02:40:40;;;;;;;2.47;2.28;;;;;;;8.10;80.00;98103.22;5095213;28;20122;-70
2022/05/17 02:43:05;;;;;;;2.30;2.10;;;;;;;8.13;79.90;98103.78;5094735;28;20126;-73
2022/05/17 02:45:30;;;;;;;2.22;2.03;;;;;;;8.12;80.58;98103.94;5076440;28;20051;-65
2022/05/17 02:47:55;;;;;;;2.15;2.03;;;;;;;8.13;80.25;98105.59;5094770;28;20443;-69
2022/05/17 02:50:21;;;;;;;5.07;2.40;;;;;;;8.13;80.30;98105.59;5076421;28;20460;-69
2022/05/17 02:52:46;;;;;;;3.22;2.33;;;;;;;8.08;80.46;98106.00;5076311;28;20034;-68
2022/05/17 02:55:11;;;;;;;4.22;2.75;;;;;;;8.09;80.22;98106.84;5076459;28;20047;-67
2022/05/17 02:57:35;;;;;;;3.38;2.00;;;;;;;8.09;80.06;98104.19;5058511;28;20035;-67
2022/05/17 03:00:01;;;;;;;2.58;2.05;;;;;;;8.11;80.30;98097.78;5075788;28;20610;-67
2022/05/17 03:02:26;;;;;;;3.70;2.25;;;;;;;8.16;80.85;98108.84;5094522;28;20083;-66
2022/05/17 03:04:51;;;;;;;1.70;1.60;;;;;;;8.14;80.22;98108.13;5094497;28;20129;-66
2022/05/17 03:07:16;;;;;;;5.15;2.75;;;;;;;8.12;81.21;98103.94;5094529;28;20148;-66
2022/05/17 03:09:40;;;;;;;2.92;2.50;;;;;;;8.13;80.62;98105.59;5094581;28;20091;-68
2022/05/17 03:12:06;;;;;;;3.70;2.30;;;;;;;8.15;80.82;98093.03;5094459;28;20043;-69
2022/05/17 03:14:31;;;;;;;2.17;1.95;;;;;;;8.16;80.77;98097.38;5076281;28;20091;-67
2022/05/17 03:16:56;;;;;;;2.85;2.25;;;;;;;8.16;81.13;98097.38;5094538;27;20050;-67
2022/05/17 03:19:20;;;;;;;2.40;2.05;;;;;;;8.13;80.61;98092.31;5096856;27;20454;-67
2022/05/17 03:21:46;;;;;;;3.75;2.42;;;;;;;8.15;81.33;98091.22;5079644;27;20601;-67
2022/05/17 03:24:11;;;;;;;2.47;2.25;;;;;;;8.18;80.98;98098.94;5097153;27;20072;-67
2022/05/17 03:26:36;;;;;;;2.30;2.10;;;;;;;8.19;81.35;98095.31;5097671;27;20115;-63
2022/05/17 03:29:01;;;;;;;2.88;2.35;;;;;;;8.16;81.02;98094.72;5062655;27;20403;-63
2022/05/17 03:31:27;;;;;;;2.78;2.40;;;;;;;8.21;81.37;98097.84;5097329;27;20042;-62
2022/05/17 03:33:52;;;;;;;3.45;2.40;;;;;;;8.25;80.95;98093.91;5078743;27;20119;-66
2022/05/17 03:36:17;;;;;;;2.55;2.00;;;;;;;8.30;80.74;98100.53;5097199;27;20043;-66
2022/05/17 03:38:42;;;;;;;3.05;2.20;;;;;;;8.34;80.57;98102.00;5097956;27;20039;-66
2022/05/17 03:41:06;;;;;;;2.00;1.80;;;;;;;8.35;81.22;98098.31;5062643;27;20035;-64
2022/05/17 03:43:31;;;;;;;2.38;2.17;;;;;;;8.37;80.80;98095.53;5098091;27;20123;-64
2022/05/17 03:45:57;;;;;;;3.58;2.08;;;;;;;8.42;81.03;98105.78;5097696;27;20409;-64
2022/05/17 03:48:23;;;;;;;2.15;2.00;;;;;;;8.40;81.30;98102.41;5097505;27;20061;-63
2022/05/17 03:50:48;;;;;;;1.95;1.83;;;;;;;8.36;81.10;98101.81;5079250;27;20176;-63
2022/05/17 03:53:13;;;;;;;3.22;2.35;;;;;;;8.37;80.80;98099.03;5079195;27;20157;-62
2022/05/17 03:55:38;;;;;;;3.45;3.15;;;;;;;8.37;81.24;98109.66;5079248;27;20537;-63
2022/05/17 03:58:04;;;;;;;5.97;2.70;;;;;;;8.39;81.22;98106.88;5079022;27;20043;-63
2022/05/17 04:00:28;;;;;;;4.95;2.80;;;;;;;8.37;80.94;98104.34;5097479;27;20099;-64
2022/05/17 04:02:54;;;;;;;3.60;3.28;;;;;;;8.41;80.63;98107.59;5061997;27;20601;-63
2022/05/17 04:05:19;;;;;;;4.00;3.30;;;;;;;8.41;80.40;98104.09;5078896;27;20510;-63
2022/05/17 04:07:45;;;;;;;3.53;3.08;;;;;;;8.43;80.89;98102.16;5079376;27;20130;-64
2022/05/17 04:10:13;;;;;;;4.10;2.83;;;;;;;8.38;80.83;98105.19;5062077;27;20146;-63
2022/05/17 04:12:38;;;;;;;2.30;2.10;;;;;;;8.34;81.07;98103.81;5078684;27;20091;-63
2022/05/17 04:15:05;;;;;;;2.45;2.03;;;;;;;8.37;81.22;98096.38;5097440;27;20038;-63
2022/05/17 04:17:31;;;;;;;2.50;2.08;;;;;;;8.36;81.10;98096.50;5097267;27;20112;-64
2022/05/17 04:19:59;;;;;;;2.65;2.45;;;;;;;8.40;80.97;98103.25;5045271;27;20662;-64
2022/05/17 04:22:24;;;;;;;3.20;2.25;;;;;;;8.46;81.45;98091.28;5079014;27;20794;-64
2022/05/17 04:24:53;;;;;;;4.38;2.30;;;;;;;8.55;80.97;98096.63;5097780;27;20459;-63
2022/05/17 04:27:19;;;;;;;2.85;2.47;;;;;;;8.57;80.91;98093.81;5047561;27;20077;-63
2022/05/17 04:29:44;;;;;;;2.88;2.25;;;;;;;8.57;80.62;98089.34;5061780;27;20070;-64
2022/05/17 04:32:09;;;;;;;4.18;2.33;;;;;;;8.60;80.51;98088.22;5078676;27;20477;-65
2022/05/17 04:34:34;;;;;;;2.28;2.00;;;;;;;8.63;80.02;98090.63;5078650;27;20039;-64
2022/05/17 04:36:59;;;;;;;4.03;2.20;;;;;;;8.62;80.51;98095.09;5096865;27;20054;-65
2022/05/17 04:39:24;;;;;;;3.03;2.50;;;;;;;8.59;79.86;98100.66;5097049;27;20046;-64
2022/05/17 04:41:49;;;;;;;2.70;2.50;;;;;;;8.57;80.36;98089.34;5078602;27;20038;-64
2022/05/17 04:44:14;;;;;;;4.97;3.60;;;;;;;8.60;80.17;98088.22;5100465;27;20042;-64
2022/05/17 04:46:38;;;;;;;4.95;3.83;;;;;;;8.61;80.52;98090.75;5096883;27;20038;-63
2022/05/17 04:49:03;;;;;;;5.93;4.32;;;;;;;8.68;80.44;98088.41;5096852;27;20493;-65
2022/05/17 04:51:28;;;;;;;10.23;6.90;;;;;;;8.69;80.41;98092.75;5078206;27;20046;-63
2022/05/17 04:53:53;;;;;;;8.98;5.90;;;;;;;8.72;79.88;98089.78;5096808;27;20051;-64
2022/05/17 04:56:19;;;;;;;5.45;4.35;;;;;;;8.69;80.27;98093.56;5096567;27;20050;-64
2022/05/17 04:58:45;;;;;;;5.53;4.40;;;;;;;8.72;80.46;98093.28;5060697;27;20091;-63
2022/05/17 05:01:10;;;;;;;11.98;6.88;;;;;;;8.72;80.17;98087.97;5096322;27;20046;-63
2022/05/17 05:03:35;;;;;;;8.27;5.75;;;;;;;8.74;80.47;98086.03;5096389;27;20501;-63
2022/05/17 05:05:59;;;;;;;10.32;8.27;;;;;;;8.76;80.68;98091.22;5077845;27;20520;-64
2022/05/17 05:08:24;;;;;;;11.25;9.43;;;;;;;8.84;79.89;98090.53;5061629;27;20058;-63
2022/05/17 05:10:50;;;;;;;11.63;8.75;;;;;;;8.83;80.50;98089.69;5098297;27;20053;-65
2022/05/17 05:13:20;;;;;;;14.40;10.40;;;;;;;8.89;80.46;98093.63;5077719;27;20125;-63
2022/05/17 05:15:45;;;;;;;20.20;13.98;;;;;;;8.91;80.20;98089.88;5077733;27;20047;-64
2022/05/17 05:18:10;;;;;;;18.15;14.00;;;;;;;8.94;80.36;98089.56;5062476;27;20039;-63
2022/05/17 05:20:35;;;;;;;16.70;13.48;;;;;;;8.97;80.46;98094.63;5099003;27;20046;-63
2022/05/17 05:23:00;;;;;;;13.77;9.27;;;;;;;9.01;80.21;98100.50;5098121;27;20039;-65
2022/05/17 05:25:25;;;;;;;11.57;9.32;;;;;;;9.05;80.06;98097.41;5098910;27;20046;-63
2022/05/17 05:27:50;;;;;;;10.18;7.15;;;;;;;9.07;80.26;98098.13;5080020;27;20099;-64
2022/05/17 05:30:16;;;;;;;12.85;7.65;;;;;;;9.08;79.93;98107.78;5078480;27;20079;-63
2022/05/17 05:32:41;;;;;;;9.88;7.32;;;;;;;9.05;79.75;98105.41;5097337;27;20074;-63
2022/05/17 05:35:06;;;;;;;14.05;8.90;;;;;;;9.05;79.38;98108.06;5078641;27;20081;-64
2022/05/17 05:37:31;;;;;;;18.67;12.32;;;;;;;9.09;79.87;98101.50;5097676;27;20065;-70
2022/05/17 05:39:56;;;;;;;19.15;10.80;;;;;;;9.09;80.16;98101.50;5080259;27;20043;-71
2022/05/17 05:42:21;;;;;;;15.63;9.40;;;;;;;9.06;79.44;98101.75;5062439;27;20047;-69
2022/05/17 05:44:47;;;;;;;16.33;10.52;;;;;;;9.06;79.66;98111.56;5097498;27;20486;-70
2022/05/17 05:47:12;;;;;;;16.58;10.93;;;;;;;9.10;80.29;98105.00;5096251;27;20524;-70
2022/05/17 05:49:36;;;;;;;21.75;11.05;;;;;;;9.07;80.12;98108.75;5097728;27;20027;-70
2022/05/17 05:52:01;;;;;;;22.23;12.52;;;;;;;9.13;80.01;98111.84;5095874;27;20119;-70
2022/05/17 05:54:26;;;;;;;26.13;12.32;;;;;;;9.15;80.31;98107.22;5096567;27;20062;-71
2022/05/17 05:56:51;;;;;;;21.80;12.98;;;;;;;9.17;79.57;98108.78;5097846;27;20121;-63
2022/05/17 05:59:15;;;;;;;21.08;11.55;;;;;;;9.18;79.79;98122.91;5078316;27;20061;-63
2022/05/17 06:01:40;;;;;;;20.92;11.55;;;;;;;9.19;79.57;98112.13;5095451;27;20066;-64
2022/05/17 06:04:06;;;;;;;18.02;10.90;;;;;;;9.18;79.58;98114.94;5077102;28;20047;-64
2022/05/17 06:06:31;;;;;;;18.13;9.40;;;;;;;9.23;80.25;98118.03;5076800;27;20047;-64
2022/05/17 06:08:55;;;;;;;16.95;9.57;;;;;;;9.22;80.19;98122.50;5076788;27;20039;-65
2022/05/17 06:11:21;;;;;;;12.85;7.38;;;;;;;9.23;80.00;98126.84;5094988;27;20039;-64
2022/05/17 06:13:46;;;;;;;11.23;6.72;;;;;;;9.25;79.89;98126.72;5076786;28;20063;-63
2022/05/17 06:16:10;;;;;;;13.27;6.15;;;;;;;9.27;79.64;98120.25;5076955;28;20101;-64
2022/05/17 06:18:35;;;;;;;7.18;5.07;;;;;;;9.25;79.71;98121.38;5077161;28;20337;-64
2022/05/17 06:21:02;;;;;;;9.52;5.55;;;;;;;9.26;79.69;98120.38;5077037;28;20086;-64
2022/05/17 06:23:27;;;;;;;11.70;5.05;;;;;;;9.22;79.60;98126.97;5095019;28;20065;-65
2022/05/17 06:25:51;;;;;;;6.15;4.45;;;;;;;9.27;79.80;98130.03;5095281;28;20050;-64
2022/05/17 06:28:16;;;;;;;9.90;4.50;;;;;;;9.32;80.29;98125.16;5095071;28;20118;-64
2022/05/17 06:30:41;;;;;;;7.35;3.83;;;;;;;9.31;79.86;98131.47;5076907;28;20043;-62
2022/05/17 06:33:10;;;;;;;6.05;4.00;;;;;;;9.35;80.61;98127.56;5076964;28;20504;-64
2022/05/17 06:35:37;;;;;;;7.15;4.55;;;;;;;9.29;79.46;98125.44;5042982;28;20039;-64
2022/05/17 06:38:02;;;;;;;9.35;5.43;;;;;;;9.30;79.51;98127.13;5095156;28;20062;-64
2022/05/17 06:40:27;;;;;;;11.07;6.53;;;;;;;9.31;79.78;98128.81;5060020;28;20096;-64
2022/05/17 06:42:52;;;;;;;8.35;5.60;;;;;;;9.31;79.74;98131.47;5076966;28;20043;-63
2022/05/17 06:45:17;;;;;;;8.98;4.30;;;;;;;9.31;80.31;98129.66;5095312;28;20058;-66
2022/05/17 06:47:42;;;;;;;5.65;3.60;;;;;;;9.32;79.92;98125.16;5095217;28;20378;-65
2022/05/17 06:50:07;;;;;;;8.75;3.65;;;;;;;9.38;80.14;98136.06;5076884;28;20417;-67
2022/05/17 06:52:33;;;;;;;4.50;3.10;;;;;;;9.37;80.03;98137.06;5077414;27;20059;-65
2022/05/17 06:54:58;;;;;;;6.97;4.22;;;;;;;9.32;80.10;98138.47;5099160;27;20122;-65
2022/05/17 06:57:23;;;;;;;5.43;3.85;;;;;;;9.35;79.99;98131.06;5098833;27;20039;-65
2022/05/17 06:59:47;;;;;;;5.68;3.60;;;;;;;9.37;80.33;98136.22;5098676;27;20042;-64
2022/05/17 07:02:13;;;;;;;7.88;4.78;;;;;;;9.35;80.47;98138.19;5080506;27;20046;-64
2022/05/17 07:04:38;;;;;;;5.65;4.15;;;;;;;9.35;80.04;98140.84;5046404;27;20039;-64
2022/05/17 07:07:04;;;;;;;6.88;3.80;;;;;;;9.36;80.19;98142.53;5098707;27;20049;-65
2022/05/17 07:09:30;;;;;;;5.65;3.97;;;;;;;9.40;80.28;98143.91;5099551;27;20039;-64
2022/05/17 07:14:39;;;;;;;5.03;3.92;;;;;;;9.45;79.68;98157.66;5098673;27;20039;-64
2022/05/17 07:17:05;;;;;;;6.45;4.40;;;;;;;9.46;80.05;98154.03;5080583;27;20047;-64
2022/05/17 07:19:33;;;;;;;5.78;3.95;;;;;;;9.48;79.73;98160.00;5098816;27;20505;-64
2022/05/17 07:22:00;;;;;;;4.68;3.85;;;;;;;9.48;79.90;98158.19;5063030;27;20135;-64
2022/05/17 07:24:25;;;;;;;7.30;3.80;;;;;;;9.47;80.18;98155.72;5098407;27;20043;-63
2022/05/17 07:26:49;;;;;;;5.20;3.45;;;;;;;9.47;79.86;98163.69;5080316;27;20121;-63
2022/05/17 07:29:14;;;;;;;4.55;3.17;;;;;;;9.48;79.60;98175.97;5098418;27;20482;-64
2022/05/17 07:31:39;;;;;;;4.13;3.47;;;;;;;9.39;79.78;98168.84;5062807;27;20041;-63
2022/05/17 07:34:03;;;;;;;4.75;3.63;;;;;;;9.39;80.53;98168.84;5098480;27;20053;-63
2022/05/17 07:36:29;;;;;;;8.80;4.05;;;;;;;9.41;80.74;98172.19;5088293;27;20547;-64
2022/05/17 07:38:57;;;;;;;5.57;3.75;;;;;;;9.42;80.23;98177.38;5066205;28;20047;-64
2022/05/17 07:41:22;;;;;;;7.97;3.92;;;;;;;9.43;80.54;98172.91;5077828;27;20528;-64
2022/05/17 07:43:46;;;;;;;4.68;4.18;;;;;;;9.44;80.23;98179.91;5076164;28;20481;-64
2022/05/17 07:46:11;;;;;;;6.63;4.70;;;;;;;9.46;80.59;98172.66;5090575;27;20463;-65
2022/05/17 07:48:37;;;;;;;9.55;5.05;;;;;;;9.47;79.93;98177.00;5097924;27;20533;-65
2022/05/17 07:51:01;;;;;;;6.88;5.00;;;;;;;9.41;80.77;98177.53;5096414;27;20031;-63
2022/05/17 07:53:26;;;;;;;7.75;5.30;;;;;;;9.38;80.73;98181.28;5078839;27;20050;-64
2022/05/17 07:55:51;;;;;;;7.43;4.95;;;;;;;9.38;80.32;98180.44;5097271;27;20038;-65
2022/05/17 07:58:16;;;;;;;6.05;4.40;;;;;;;9.39;80.20;98187.44;5077744;27;20035;-64
2022/05/17 08:00:42;;;;;;;9.13;6.00;;;;;;;9.41;80.91;98180.19;5096465;27;20046;-64
2022/05/17 08:03:08;;;;;;;6.25;4.68;;;;;;;9.41;80.40;98182.84;5066833;28;20043;-65
2022/05/17 08:05:33;;;;;;;9.35;6.05;;;;;;;9.44;80.59;98175.44;5088922;27;20079;-66
2022/05/17 08:07:58;;;;;;;7.28;5.22;;;;;;;9.47;80.29;98174.31;5061829;27;20073;-64
2022/05/17 08:10:23;;;;;;;9.75;5.50;;;;;;;9.52;81.22;98172.06;5097499;27;20067;-63
2022/05/17 08:12:48;;;;;;;10.70;5.70;;;;;;;9.57;80.93;98166.34;5079178;27;20049;-64
2022/05/17 08:15:13;;;;;;;9.63;5.63;;;;;;;9.70;81.39;98162.44;5097481;27;20050;-64
2022/05/17 08:17:39;;;;;;;7.65;5.07;;;;;;;9.93;80.97;98167.47;5042920;28;20507;-63
2022/05/17 08:20:09;;;;;;;6.45;5.38;;;;;;;10.07;80.89;98170.50;5056264;28;20121;-68
2022/05/17 08:22:34;;;;;;;6.10;4.85;;;;;;;10.22;80.20;98168.28;5057144;28;20387;-64
2022/05/17 08:27:42;;;;;;;5.72;4.65;;;;;;;10.38;79.76;98171.22;5055104;28;20050;-64
2022/05/17 08:30:12;;;;;;;9.85;4.90;;;;;;;10.45;78.90;98174.97;5058411;28;20094;-64
2022/05/17 08:35:56;;;;;;;8.70;4.75;;;;;;;10.53;78.06;98169.75;5077429;28;20040;-65
2022/05/17 08:38:33;;;;;;;6.35;5.28;;;;;;;10.50;77.82;98167.34;5056480;28;20043;-64
2022/05/17 08:41:16;;;;;;;8.38;5.07;;;;;;;10.50;77.95;98171.84;5054970;28;20032;-63
2022/05/17 08:43:56;;;;;;;6.47;4.32;;;;;;;10.40;78.03;98174.53;5054509;28;20036;-63
2022/05/17 08:46:34;;;;;;;6.50;4.50;;;;;;;10.39;77.85;98182.66;5054701;28;20059;-64
2022/05/17 08:49:14;;;;;;;9.25;4.80;;;;;;;10.41;78.20;98178.03;5056279;28;20036;-66
2022/05/17 08:51:44;;;;;;;7.38;4.03;;;;;;;10.37;78.72;98195.31;5056187;28;20393;-63
2022/05/17 08:54:15;;;;;;;4.82;4.07;;;;;;;10.32;77.99;98201.06;5055373;28;20494;-65
2022/05/17 08:57:00;;;;;;;5.28;4.13;;;;;;;10.36;78.55;98205.13;5056830;28;20040;-64
2022/05/17 08:59:24;;;;;;;8.02;4.68;;;;;;;10.15;78.07;98201.78;5039670;28;20036;-65
2022/05/17 09:02:04;;;;;;;6.80;4.75;;;;;;;10.09;78.81;98197.84;5056350;28;20089;-65
2022/05/17 09:04:47;;;;;;;5.68;4.30;;;;;;;10.05;79.38;98196.44;5057144;28;20047;-67
2022/05/17 09:07:15;;;;;;;8.45;5.07;;;;;;;10.04;79.69;98196.59;5058651;28;20546;-66
2022/05/17 09:09:55;;;;;;;14.05;5.57;;;;;;;10.07;79.65;98186.50;5057414;28;20122;-64
2022/05/17 09:12:26;;;;;;;5.50;4.65;;;;;;;9.98;79.66;98199.81;5058883;28;20044;-64
2022/05/17 09:14:56;;;;;;;5.05;4.10;;;;;;;9.94;79.64;98195.75;5058945;28;20059;-66
2022/05/17 09:17:24;;;;;;;10.63;4.53;;;;;;;9.89;79.61;98195.34;5075890;28;20537;-65
2022/05/17 09:19:50;;;;;;;6.40;4.75;;;;;;;9.86;79.75;98192.94;5066568;28;20063;-63
2022/05/17 09:22:14;;;;;;;7.22;4.45;;;;;;;9.82;80.34;98198.53;5068243;28;20414;-66
2022/05/17 09:24:42;;;;;;;6.80;5.32;;;;;;;9.78;79.97;98191.00;5064245;28;20104;-69
2022/05/17 09:27:22;;;;;;;7.80;5.22;;;;;;;9.74;80.16;98190.44;5087760;28;20044;-69
2022/05/17 09:29:49;;;;;;;8.32;5.18;;;;;;;9.66;80.33;98202.75;5060039;28;20502;-70
2022/05/17 09:32:25;;;;;;;10.23;6.05;;;;;;;9.64;80.90;98202.91;5059831;28;20075;-69
2022/05/17 09:34:59;;;;;;;8.05;5.55;;;;;;;9.60;80.55;98203.28;5059489;28;20415;-69
2022/05/17 09:37:24;;;;;;;12.07;6.57;;;;;;;9.56;80.46;98207.22;5076605;28;20044;-69
2022/05/17 09:39:51;;;;;;;10.52;7.43;;;;;;;9.58;81.40;98207.94;5059819;28;20063;-69
2022/05/17 09:42:42;;;;;;;11.63;7.45;;;;;;;9.66;80.65;98200.09;5077572;28;20512;-70
2022/05/17 09:45:14;;;;;;;9.00;7.43;;;;;;;9.59;80.72;98198.97;5063874;28;20035;-68
2022/05/17 09:47:55;;;;;;;14.15;9.38;;;;;;;9.59;80.79;98210.47;5062569;28;20043;-70
2022/05/17 09:53:21;;;;;;;10.63;6.90;;;;;;;9.49;81.23;98204.25;5059418;28;20560;-68
2022/05/17 09:55:49;;;;;;;11.60;7.43;;;;;;;9.47;81.32;98206.25;5059742;28;20036;-69
2022/05/17 09:58:36;;;;;;;9.90;6.45;;;;;;;9.47;81.06;98208.91;5057784;28;20494;-69
2022/05/17 10:01:28;;;;;;;7.15;6.22;;;;;;;9.46;81.79;98209.88;5057364;28;20040;-70
2022/05/17 10:04:05;;;;;;;7.95;6.47;;;;;;;9.48;81.98;98208.75;5051369;28;20058;-70
2022/05/17 10:06:38;;;;;;;7.70;5.97;;;;;;;9.48;81.13;98210.56;5058602;28;20040;-70
2022/05/17 10:09:08;;;;;;;12.07;6.70;;;;;;;9.45;81.67;98208.19;5072763;28;20050;-69
2022/05/17 10:11:46;;;;;;;10.82;6.88;;;;;;;9.48;81.42;98212.41;5057184;28;20123;-70
2022/05/17 10:14:16;;;;;;;8.85;6.78;;;;;;;9.45;81.67;98218.84;5077068;28;20052;-71
2022/05/17 10:17:01;;;;;;;10.23;7.00;;;;;;;9.48;81.12;98213.22;5064273;28;20063;-73
2022/05/17 10:19:53;;;;;;;9.73;6.63;;;;;;;9.48;80.60;98215.88;5062690;28;20074;-74
2022/05/17 10:22:30;;;;;;;10.48;7.60;;;;;;;9.38;81.39;98212.38;5073547;28;20086;-71
2022/05/17 10:25:01;;;;;;;9.45;6.93;;;;;;;9.36;81.23;98219.66;5053736;28;20032;-71
2022/05/17 10:27:41;;;;;;;13.52;7.65;;;;;;;9.40;81.51;98221.06;5055536;28;20044;-68
2022/05/17 10:30:10;;;;;;;10.40;7.55;;;;;;;9.39;81.14;98209.56;5058006;28;20051;-67
2022/05/17 10:32:46;;;;;;;9.77;7.47;;;;;;;9.47;81.56;98211.56;5057895;28;20118;-72
2022/05/17 10:35:33;;;;;;;9.57;6.80;;;;;;;9.49;81.53;98209.59;5041034;28;20048;-69
2022/05/17 10:38:08;;;;;;;13.32;8.07;;;;;;;9.56;81.28;98212.56;5074908;28;20036;-70
2022/05/17 10:40:43;;;;;;;11.00;7.88;;;;;;;9.46;80.80;98209.88;5059370;28;20127;-70
2022/05/17 10:43:08;;;;;;;12.75;7.65;;;;;;;9.46;80.56;98221.38;5058780;28;20441;-70
2022/05/17 10:45:33;;;;;;;14.43;8.00;;;;;;;9.49;81.24;98214.91;5058911;28;20058;-68
2022/05/17 10:48:26;;;;;;;11.43;8.10;;;;;;;9.58;81.15;98224.75;5075406;28;20103;-71
2022/05/17 10:51:03;;;;;;;12.23;8.20;;;;;;;9.61;80.55;98231.59;5057537;28;20498;-72
2022/05/17 10:54:18;;;;;;;12.60;8.55;;;;;;;9.66;80.48;98227.53;5059198;28;20071;-72
2022/05/17 10:57:02;;;;;;;11.55;8.50;;;;;;;9.62;80.74;98236.78;5000594;28;20118;-72
2022/05/17 10:59:32;;;;;;;11.02;7.32;;;;;;;9.62;81.16;98231.44;4984746;28;20045;-72
2022/05/17 11:02:13;;;;;;;13.50;7.78;;;;;;;9.71;81.22;98235.09;4967335;28;20053;-72
2022/05/17 11:05:22;;;;;;;8.68;6.65;;;;;;;9.78;81.26;98234.44;5016563;28;20132;-63
2022/05/17 11:08:30;;;;;;;11.80;7.18;;;;;;;9.79;80.54;98233.44;4938360;28;20043;-65
2022/05/17 11:11:37;;;;;;;11.02;7.78;;;;;;;9.81;80.69;98231.50;4938029;28;20240;-65
2022/05/17 11:14:21;;;;;;;10.32;7.88;;;;;;;9.78;80.39;98239.75;4922156;28;20452;-63
2022/05/17 11:16:49;;;;;;;9.75;7.93;;;;;;;9.71;80.38;98232.44;4938423;28;20526;-63
2022/05/17 11:19:25;;;;;;;10.73;8.20;;;;;;;9.76;79.92;98233.72;4924340;28;20050;-64
2022/05/17 11:21:59;;;;;;;9.82;7.30;;;;;;;9.74;80.23;98234.81;4939291;28;20055;-67
2022/05/17 11:24:33;;;;;;;12.05;7.78;;;;;;;9.77;80.17;98234.56;4922794;28;20046;-62
2022/05/17 11:27:36;;;;;;;10.32;7.20;;;;;;;9.84;80.22;98241.00;4938462;28;20059;-64
2022/05/17 11:30:19;;;;;;;12.23;7.72;;;;;;;9.87;80.06;98243.38;4922401;28;20437;-63
2022/05/17 11:33:08;;;;;;;9.80;7.45;;;;;;;9.93;79.63;98248.13;4987401;28;20067;-62
2022/05/17 11:35:33;;;;;;;9.57;7.03;;;;;;;9.88;79.64;98245.06;4952298;28;20049;-64
2022/05/17 11:37:59;;;;;;;10.27;6.95;;;;;;;9.90;79.87;98245.78;5003908;28;20140;-67
2022/05/17 11:40:51;;;;;;;8.98;7.00;;;;;;;10.05;79.59;98254.16;5000664;28;20087;-65
2022/05/17 11:43:40;;;;;;;8.15;6.68;;;;;;;10.10;79.04;98258.09;5059076;28;20503;-64
2022/05/17 11:46:05;;;;;;;9.00;6.95;;;;;;;10.02;78.92;98255.31;5076236;28;20047;-62
2022/05/17 11:48:52;;;;;;;9.68;6.82;;;;;;;10.12;79.22;98255.31;5058638;28;20517;-62
2022/05/17 11:51:17;;;;;;;10.00;6.85;;;;;;;10.10;78.95;98251.94;5056071;28;20035;-64
2022/05/17 11:53:47;;;;;;;9.63;6.95;;;;;;;10.11;78.85;98256.28;5059621;28;20047;-63
2022/05/17 11:56:24;;;;;;;9.63;6.93;;;;;;;10.23;79.06;98254.34;5031166;28;20031;-62
2022/05/17 11:58:51;;;;;;;13.27;7.03;;;;;;;10.19;78.91;98259.94;5056728;28;20044;-62
2022/05/17 12:01:31;;;;;;;8.52;6.88;;;;;;;10.29;78.72;98257.28;5041192;28;20039;-62